sensor_id;sensor_type;location;lat;lon;timestamp;temperature;humidity
81222;DHT22;70691;52.492;13.420;2023-08-24T00:01:10;22.60;51.70
81222;DHT22;70691;52.492;13.420;2023-08-24T00:03:37;22.60;51.70
81222;DHT22;70691;52.492;13.420;2023-08-24T00:06:03;22.50;51.60
81222;DHT22;70691;52.492;13.420;2023-08-24T00:08:29;22.50;51.60
81222;DHT22;70691;52.492;13.420;2023-08-24T00:10:54;22.50;51.80
81222;DHT22;70691;52.492;13.420;2023-08-24T00:13:20;22.40;51.80
81222;DHT22;70691;52.492;13.420;2023-08-24T00:15:46;22.40;51.80
81222;DHT22;70691;52.492;13.420;2023-08-24T00:18:12;22.40;51.90
81222;DHT22;70691;52.492;13.420;2023-08-24T00:20:37;22.40;52.00
81222;DHT22;70691;52.492;13.420;2023-08-24T00:23:03;22.30;52.00
81222;DHT22;70691;52.492;13.420;2023-08-24T00:25:30;22.20;52.50
81222;DHT22;70691;52.492;13.420;2023-08-24T00:27:56;22.20;52.60
81222;DHT22;70691;52.492;13.420;2023-08-24T00:30:22;22.30;52.90
81222;DHT22;70691;52.492;13.420;2023-08-24T00:32:48;22.30;52.90
81222;DHT22;70691;52.492;13.420;2023-08-24T00:35:14;22.30;52.90
81222;DHT22;70691;52.492;13.420;2023-08-24T00:37:41;22.30;52.80
81222;DHT22;70691;52.492;13.420;2023-08-24T00:40:07;22.30;52.80
81222;DHT22;70691;52.492;13.420;2023-08-24T00:42:45;22.30;52.70
81222;DHT22;70691;52.492;13.420;2023-08-24T00:45:14;22.20;52.80
81222;DHT22;70691;52.492;13.420;2023-08-24T00:47:41;22.20;53.00
81222;DHT22;70691;52.492;13.420;2023-08-24T00:50:08;22.20;53.20
81222;DHT22;70691;52.492;13.420;2023-08-24T00:52:37;22.20;53.20
81222;DHT22;70691;52.492;13.420;2023-08-24T00:55:05;22.20;53.20
81222;DHT22;70691;52.492;13.420;2023-08-24T00:57:31;22.10;53.30
81222;DHT22;70691;52.492;13.420;2023-08-24T00:59:59;22.10;53.50
81222;DHT22;70691;52.492;13.420;2023-08-24T01:02:25;22.10;53.60
81222;DHT22;70691;52.492;13.420;2023-08-24T01:04:51;22.10;53.50
81222;DHT22;70691;52.492;13.420;2023-08-24T01:07:17;22.20;53.50
81222;DHT22;70691;52.492;13.420;2023-08-24T01:09:44;22.10;53.40
81222;DHT22;70691;52.492;13.420;2023-08-24T01:17:52;22.10;53.70
81222;DHT22;70691;52.492;13.420;2023-08-24T01:20:20;22.00;53.70
81222;DHT22;70691;52.492;13.420;2023-08-24T01:23:07;22.10;53.70
81222;DHT22;70691;52.492;13.420;2023-08-24T01:25:50;22.10;53.70
81222;DHT22;70691;52.492;13.420;2023-08-24T01:28:17;22.00;53.70
81222;DHT22;70691;52.492;13.420;2023-08-24T01:30:44;22.10;53.50
81222;DHT22;70691;52.492;13.420;2023-08-24T01:33:10;22.10;53.40
81222;DHT22;70691;52.492;13.420;2023-08-24T01:35:37;22.10;53.20
81222;DHT22;70691;52.492;13.420;2023-08-24T01:38:04;22.10;53.10
81222;DHT22;70691;52.492;13.420;2023-08-24T01:40:44;22.10;52.90
81222;DHT22;70691;52.492;13.420;2023-08-24T01:43:11;22.00;52.80
81222;DHT22;70691;52.492;13.420;2023-08-24T01:45:41;22.00;52.90
81222;DHT22;70691;52.492;13.420;2023-08-24T01:48:09;22.00;52.90
81222;DHT22;70691;52.492;13.420;2023-08-24T01:50:35;22.00;53.00
81222;DHT22;70691;52.492;13.420;2023-08-24T01:53:02;21.90;52.90
81222;DHT22;70691;52.492;13.420;2023-08-24T01:55:29;22.00;53.10
81222;DHT22;70691;52.492;13.420;2023-08-24T01:57:56;22.00;53.30
81222;DHT22;70691;52.492;13.420;2023-08-24T02:00:22;22.00;53.40
81222;DHT22;70691;52.492;13.420;2023-08-24T02:02:48;22.00;53.80
81222;DHT22;70691;52.492;13.420;2023-08-24T02:05:13;22.00;54.10
81222;DHT22;70691;52.492;13.420;2023-08-24T02:07:39;22.00;54.70
81222;DHT22;70691;52.492;13.420;2023-08-24T02:10:06;22.00;55.20
81222;DHT22;70691;52.492;13.420;2023-08-24T02:12:32;21.90;55.40
81222;DHT22;70691;52.492;13.420;2023-08-24T02:14:57;21.90;55.70
81222;DHT22;70691;52.492;13.420;2023-08-24T02:17:23;22.00;56.20
81222;DHT22;70691;52.492;13.420;2023-08-24T02:19:49;22.00;56.50
81222;DHT22;70691;52.492;13.420;2023-08-24T02:22:15;22.00;56.60
81222;DHT22;70691;52.492;13.420;2023-08-24T02:24:41;22.00;56.70
81222;DHT22;70691;52.492;13.420;2023-08-24T02:27:06;22.00;56.70
81222;DHT22;70691;52.492;13.420;2023-08-24T02:29:32;22.00;56.70
81222;DHT22;70691;52.492;13.420;2023-08-24T02:31:58;22.00;56.80
81222;DHT22;70691;52.492;13.420;2023-08-24T02:34:23;22.00;56.70
81222;DHT22;70691;52.492;13.420;2023-08-24T02:36:49;22.00;56.70
81222;DHT22;70691;52.492;13.420;2023-08-24T02:39:14;22.00;56.70
81222;DHT22;70691;52.492;13.420;2023-08-24T02:41:41;22.00;56.70
81222;DHT22;70691;52.492;13.420;2023-08-24T02:44:07;22.00;56.70
81222;DHT22;70691;52.492;13.420;2023-08-24T02:46:32;22.00;56.70
81222;DHT22;70691;52.492;13.420;2023-08-24T02:48:58;22.00;56.70
81222;DHT22;70691;52.492;13.420;2023-08-24T02:51:24;22.00;56.70
81222;DHT22;70691;52.492;13.420;2023-08-24T02:53:50;22.00;56.60
81222;DHT22;70691;52.492;13.420;2023-08-24T02:56:16;22.00;56.70
81222;DHT22;70691;52.492;13.420;2023-08-24T02:58:41;22.00;56.70
81222;DHT22;70691;52.492;13.420;2023-08-24T03:01:07;21.90;56.60
81222;DHT22;70691;52.492;13.420;2023-08-24T03:03:36;21.90;56.40
81222;DHT22;70691;52.492;13.420;2023-08-24T03:06:04;21.90;56.50
81222;DHT22;70691;52.492;13.420;2023-08-24T03:08:32;21.90;56.40
81222;DHT22;70691;52.492;13.420;2023-08-24T03:10:59;21.90;56.40
81222;DHT22;70691;52.492;13.420;2023-08-24T03:13:25;21.90;56.40
81222;DHT22;70691;52.492;13.420;2023-08-24T03:15:51;21.90;56.60
81222;DHT22;70691;52.492;13.420;2023-08-24T03:18:17;21.80;56.70
81222;DHT22;70691;52.492;13.420;2023-08-24T03:20:47;21.80;56.80
81222;DHT22;70691;52.492;13.420;2023-08-24T03:23:13;21.90;56.70
81222;DHT22;70691;52.492;13.420;2023-08-24T03:25:40;21.90;56.70
81222;DHT22;70691;52.492;13.420;2023-08-24T03:28:07;21.90;56.60
81222;DHT22;70691;52.492;13.420;2023-08-24T03:30:37;21.90;56.40
81222;DHT22;70691;52.492;13.420;2023-08-24T03:33:04;21.90;56.20
81222;DHT22;70691;52.492;13.420;2023-08-24T03:35:33;21.90;56.00
81222;DHT22;70691;52.492;13.420;2023-08-24T03:37:59;21.90;55.40
81222;DHT22;70691;52.492;13.420;2023-08-24T03:40:25;21.90;55.20
81222;DHT22;70691;52.492;13.420;2023-08-24T03:42:51;21.90;55.30
81222;DHT22;70691;52.492;13.420;2023-08-24T03:45:18;21.90;55.30
81222;DHT22;70691;52.492;13.420;2023-08-24T03:47:43;21.90;55.10
81222;DHT22;70691;52.492;13.420;2023-08-24T03:50:09;21.90;55.10
81222;DHT22;70691;52.492;13.420;2023-08-24T03:52:35;21.90;54.90
81222;DHT22;70691;52.492;13.420;2023-08-24T03:55:01;21.90;55.00
81222;DHT22;70691;52.492;13.420;2023-08-24T03:57:27;21.90;55.00
81222;DHT22;70691;52.492;13.420;2023-08-24T03:59:53;21.90;54.80
81222;DHT22;70691;52.492;13.420;2023-08-24T04:02:18;21.90;54.60
81222;DHT22;70691;52.492;13.420;2023-08-24T04:04:44;21.90;54.20
81222;DHT22;70691;52.492;13.420;2023-08-24T04:07:10;22.00;54.10
81222;DHT22;70691;52.492;13.420;2023-08-24T04:09:35;22.00;53.80
81222;DHT22;70691;52.492;13.420;2023-08-24T04:12:01;22.00;53.70
81222;DHT22;70691;52.492;13.420;2023-08-24T04:14:27;22.00;53.70
81222;DHT22;70691;52.492;13.420;2023-08-24T04:16:52;21.90;53.70
81222;DHT22;70691;52.492;13.420;2023-08-24T04:19:18;22.00;53.80
81222;DHT22;70691;52.492;13.420;2023-08-24T04:21:43;22.00;53.80
81222;DHT22;70691;52.492;13.420;2023-08-24T04:24:09;22.00;53.70
81222;DHT22;70691;52.492;13.420;2023-08-24T04:26:35;22.00;53.70
81222;DHT22;70691;52.492;13.420;2023-08-24T04:29:00;22.00;53.50
81222;DHT22;70691;52.492;13.420;2023-08-24T04:31:26;22.00;53.70
81222;DHT22;70691;52.492;13.420;2023-08-24T04:33:51;22.00;53.70
81222;DHT22;70691;52.492;13.420;2023-08-24T04:36:17;22.00;53.70
81222;DHT22;70691;52.492;13.420;2023-08-24T04:38:43;22.00;53.70
81222;DHT22;70691;52.492;13.420;2023-08-24T04:41:09;22.00;53.70
81222;DHT22;70691;52.492;13.420;2023-08-24T04:43:35;22.00;53.70
81222;DHT22;70691;52.492;13.420;2023-08-24T04:46:04;22.00;53.80
81222;DHT22;70691;52.492;13.420;2023-08-24T04:48:29;22.00;53.80
81222;DHT22;70691;52.492;13.420;2023-08-24T04:50:59;22.00;53.70
81222;DHT22;70691;52.492;13.420;2023-08-24T04:53:26;22.00;53.70
81222;DHT22;70691;52.492;13.420;2023-08-24T04:55:52;22.00;53.90
81222;DHT22;70691;52.492;13.420;2023-08-24T04:58:18;22.00;53.80
81222;DHT22;70691;52.492;13.420;2023-08-24T05:00:44;22.00;53.80
81222;DHT22;70691;52.492;13.420;2023-08-24T05:03:10;22.00;53.80
81222;DHT22;70691;52.492;13.420;2023-08-24T05:05:36;22.00;53.70
81222;DHT22;70691;52.492;13.420;2023-08-24T05:08:04;22.10;53.70
81222;DHT22;70691;52.492;13.420;2023-08-24T05:10:32;22.10;53.60
81222;DHT22;70691;52.492;13.420;2023-08-24T05:12:59;22.10;53.70
81222;DHT22;70691;52.492;13.420;2023-08-24T05:15:25;22.20;53.70
81222;DHT22;70691;52.492;13.420;2023-08-24T05:17:51;22.20;53.80
81222;DHT22;70691;52.492;13.420;2023-08-24T05:20:22;22.20;53.70
81222;DHT22;70691;52.492;13.420;2023-08-24T05:22:48;22.20;53.50
81222;DHT22;70691;52.492;13.420;2023-08-24T05:25:14;22.30;53.30
81222;DHT22;70691;52.492;13.420;2023-08-24T05:27:42;22.30;53.20
81222;DHT22;70691;52.492;13.420;2023-08-24T05:30:08;22.30;54.30
81222;DHT22;70691;52.492;13.420;2023-08-24T05:32:34;22.30;53.30
81222;DHT22;70691;52.492;13.420;2023-08-24T05:35:07;22.40;53.00
81222;DHT22;70691;52.492;13.420;2023-08-24T05:37:33;22.50;52.70
81222;DHT22;70691;52.492;13.420;2023-08-24T05:40:02;22.60;52.60
81222;DHT22;70691;52.492;13.420;2023-08-24T05:42:28;22.60;52.50
81222;DHT22;70691;52.492;13.420;2023-08-24T05:44:53;22.70;52.40
81222;DHT22;70691;52.492;13.420;2023-08-24T05:47:19;22.80;52.30
81222;DHT22;70691;52.492;13.420;2023-08-24T05:49:45;22.80;52.20
81222;DHT22;70691;52.492;13.420;2023-08-24T05:52:10;22.90;52.20
81222;DHT22;70691;52.492;13.420;2023-08-24T05:54:37;23.00;52.20
81222;DHT22;70691;52.492;13.420;2023-08-24T05:57:04;23.00;52.10
81222;DHT22;70691;52.492;13.420;2023-08-24T05:59:30;23.10;51.80
81222;DHT22;70691;52.492;13.420;2023-08-24T06:01:56;23.20;51.40
81222;DHT22;70691;52.492;13.420;2023-08-24T06:04:21;23.30;51.10
81222;DHT22;70691;52.492;13.420;2023-08-24T06:06:47;23.30;50.90
81222;DHT22;70691;52.492;13.420;2023-08-24T06:09:13;23.40;50.90
81222;DHT22;70691;52.492;13.420;2023-08-24T06:11:40;23.50;50.70
81222;DHT22;70691;52.492;13.420;2023-08-24T06:14:06;23.50;50.60
81222;DHT22;70691;52.492;13.420;2023-08-24T06:16:32;23.40;50.80
81222;DHT22;70691;52.492;13.420;2023-08-24T06:18:57;23.40;50.60
81222;DHT22;70691;52.492;13.420;2023-08-24T06:21:23;23.50;50.30
81222;DHT22;70691;52.492;13.420;2023-08-24T06:23:49;23.50;50.10
81222;DHT22;70691;52.492;13.420;2023-08-24T06:26:15;23.50;50.10
81222;DHT22;70691;52.492;13.420;2023-08-24T06:28:40;23.60;50.00
81222;DHT22;70691;52.492;13.420;2023-08-24T06:31:06;23.60;49.90
81222;DHT22;70691;52.492;13.420;2023-08-24T06:33:35;23.70;49.80
81222;DHT22;70691;52.492;13.420;2023-08-24T06:36:02;23.80;49.80
81222;DHT22;70691;52.492;13.420;2023-08-24T06:38:28;23.80;49.70
81222;DHT22;70691;52.492;13.420;2023-08-24T06:40:54;23.90;49.60
81222;DHT22;70691;52.492;13.420;2023-08-24T06:43:20;23.90;49.40
81222;DHT22;70691;52.492;13.420;2023-08-24T06:45:45;24.00;49.40
81222;DHT22;70691;52.492;13.420;2023-08-24T06:48:11;24.00;49.10
81222;DHT22;70691;52.492;13.420;2023-08-24T06:50:37;24.10;49.10
81222;DHT22;70691;52.492;13.420;2023-08-24T06:53:03;24.20;49.00
81222;DHT22;70691;52.492;13.420;2023-08-24T06:55:29;24.30;48.20
81222;DHT22;70691;52.492;13.420;2023-08-24T06:57:55;24.30;47.90
81222;DHT22;70691;52.492;13.420;2023-08-24T07:00:21;24.40;47.80
81222;DHT22;70691;52.492;13.420;2023-08-24T07:02:47;24.50;47.60
81222;DHT22;70691;52.492;13.420;2023-08-24T07:05:14;24.60;47.40
81222;DHT22;70691;52.492;13.420;2023-08-24T07:07:40;24.70;48.20
81222;DHT22;70691;52.492;13.420;2023-08-24T07:10:09;24.80;46.70
81222;DHT22;70691;52.492;13.420;2023-08-24T07:12:35;24.80;46.60
81222;DHT22;70691;52.492;13.420;2023-08-24T07:15:01;24.90;46.60
81222;DHT22;70691;52.492;13.420;2023-08-24T07:17:27;25.10;45.80
81222;DHT22;70691;52.492;13.420;2023-08-24T07:19:52;25.20;45.70
81222;DHT22;70691;52.492;13.420;2023-08-24T07:22:18;25.40;44.70
81222;DHT22;70691;52.492;13.420;2023-08-24T07:24:44;25.50;43.80
81222;DHT22;70691;52.492;13.420;2023-08-24T07:27:10;25.60;44.00
81222;DHT22;70691;52.492;13.420;2023-08-24T07:29:36;25.70;43.90
81222;DHT22;70691;52.492;13.420;2023-08-24T07:32:02;25.70;43.80
81222;DHT22;70691;52.492;13.420;2023-08-24T07:34:28;25.70;43.80
81222;DHT22;70691;52.492;13.420;2023-08-24T07:36:54;25.70;43.80
81222;DHT22;70691;52.492;13.420;2023-08-24T07:39:26;25.70;43.70
81222;DHT22;70691;52.492;13.420;2023-08-24T07:41:55;25.80;43.80
81222;DHT22;70691;52.492;13.420;2023-08-24T07:44:20;25.80;43.60
81222;DHT22;70691;52.492;13.420;2023-08-24T07:46:49;25.90;43.40
81222;DHT22;70691;52.492;13.420;2023-08-24T07:49:15;25.90;43.40
81222;DHT22;70691;52.492;13.420;2023-08-24T07:51:41;25.90;43.70
81222;DHT22;70691;52.492;13.420;2023-08-24T07:54:08;25.90;43.60
81222;DHT22;70691;52.492;13.420;2023-08-24T07:56:34;26.00;43.70
81222;DHT22;70691;52.492;13.420;2023-08-24T07:59:00;26.10;43.40
81222;DHT22;70691;52.492;13.420;2023-08-24T08:01:26;26.10;43.40
81222;DHT22;70691;52.492;13.420;2023-08-24T08:03:52;26.20;43.10
81222;DHT22;70691;52.492;13.420;2023-08-24T08:06:17;26.40;41.20
81222;DHT22;70691;52.492;13.420;2023-08-24T08:08:43;26.40;41.70
81222;DHT22;70691;52.492;13.420;2023-08-24T08:11:11;26.50;41.50
81222;DHT22;70691;52.492;13.420;2023-08-24T08:13:36;26.50;40.70
81222;DHT22;70691;52.492;13.420;2023-08-24T08:16:06;26.70;41.30
81222;DHT22;70691;52.492;13.420;2023-08-24T08:18:32;26.70;41.10
81222;DHT22;70691;52.492;13.420;2023-08-24T08:20:58;26.80;40.80
81222;DHT22;70691;52.492;13.420;2023-08-24T08:23:24;26.80;40.80
81222;DHT22;70691;52.492;13.420;2023-08-24T08:25:50;26.80;40.70
81222;DHT22;70691;52.492;13.420;2023-08-24T08:28:16;26.90;40.60
81222;DHT22;70691;52.492;13.420;2023-08-24T08:30:43;27.10;40.70
81222;DHT22;70691;52.492;13.420;2023-08-24T08:33:09;27.30;40.60
81222;DHT22;70691;52.492;13.420;2023-08-24T08:35:35;27.30;40.00
81222;DHT22;70691;52.492;13.420;2023-08-24T08:38:01;27.30;38.90
81222;DHT22;70691;52.492;13.420;2023-08-24T08:40:29;27.30;39.20
81222;DHT22;70691;52.492;13.420;2023-08-24T08:42:59;27.20;39.30
81222;DHT22;70691;52.492;13.420;2023-08-24T08:45:25;27.10;39.60
81222;DHT22;70691;52.492;13.420;2023-08-24T08:48:00;27.10;40.10
81222;DHT22;70691;52.492;13.420;2023-08-24T08:50:26;27.00;40.10
81222;DHT22;70691;52.492;13.420;2023-08-24T08:52:52;27.00;40.20
81222;DHT22;70691;52.492;13.420;2023-08-24T08:55:18;27.00;40.20
81222;DHT22;70691;52.492;13.420;2023-08-24T08:57:47;27.00;39.90
81222;DHT22;70691;52.492;13.420;2023-08-24T09:00:17;27.10;39.80
81222;DHT22;70691;52.492;13.420;2023-08-24T09:02:43;27.10;39.80
81222;DHT22;70691;52.492;13.420;2023-08-24T09:05:12;27.10;39.90
81222;DHT22;70691;52.492;13.420;2023-08-24T09:07:41;27.10;40.10
81222;DHT22;70691;52.492;13.420;2023-08-24T09:10:08;27.10;40.40
81222;DHT22;70691;52.492;13.420;2023-08-24T09:12:34;27.00;40.50
81222;DHT22;70691;52.492;13.420;2023-08-24T09:15:07;27.00;40.40
81222;DHT22;70691;52.492;13.420;2023-08-24T09:17:33;26.90;40.90
81222;DHT22;70691;52.492;13.420;2023-08-24T09:20:00;26.80;41.30
81222;DHT22;70691;52.492;13.420;2023-08-24T09:22:36;26.90;40.80
81222;DHT22;70691;52.492;13.420;2023-08-24T09:25:02;27.00;40.50
81222;DHT22;70691;52.492;13.420;2023-08-24T09:27:29;27.00;41.30
81222;DHT22;70691;52.492;13.420;2023-08-24T09:29:55;26.90;39.80
81222;DHT22;70691;52.492;13.420;2023-08-24T09:32:31;26.90;40.10
81222;DHT22;70691;52.492;13.420;2023-08-24T09:35:03;26.90;39.60
81222;DHT22;70691;52.492;13.420;2023-08-24T09:37:35;26.90;39.90
81222;DHT22;70691;52.492;13.420;2023-08-24T09:40:01;27.00;39.70
81222;DHT22;70691;52.492;13.420;2023-08-24T09:42:27;27.00;39.60
81222;DHT22;70691;52.492;13.420;2023-08-24T09:44:53;27.20;39.40
81222;DHT22;70691;52.492;13.420;2023-08-24T09:47:19;27.30;38.80
81222;DHT22;70691;52.492;13.420;2023-08-24T09:49:45;27.30;38.40
81222;DHT22;70691;52.492;13.420;2023-08-24T09:52:11;27.40;38.90
81222;DHT22;70691;52.492;13.420;2023-08-24T09:54:38;27.50;38.40
81222;DHT22;70691;52.492;13.420;2023-08-24T09:57:09;27.60;38.00
81222;DHT22;70691;52.492;13.420;2023-08-24T09:59:37;27.70;37.90
81222;DHT22;70691;52.492;13.420;2023-08-24T10:02:14;27.80;37.30
81222;DHT22;70691;52.492;13.420;2023-08-24T10:04:41;27.80;36.70
81222;DHT22;70691;52.492;13.420;2023-08-24T10:07:11;27.80;36.60
81222;DHT22;70691;52.492;13.420;2023-08-24T10:09:51;27.90;36.90
81222;DHT22;70691;52.492;13.420;2023-08-24T10:12:20;27.90;37.10
81222;DHT22;70691;52.492;13.420;2023-08-24T10:14:56;28.00;36.60
81222;DHT22;70691;52.492;13.420;2023-08-24T10:17:23;28.00;36.70
81222;DHT22;70691;52.492;13.420;2023-08-24T10:19:51;28.00;36.10
81222;DHT22;70691;52.492;13.420;2023-08-24T10:22:19;28.00;35.70
81222;DHT22;70691;52.492;13.420;2023-08-24T10:24:49;28.10;36.20
81222;DHT22;70691;52.492;13.420;2023-08-24T10:27:15;28.10;36.30
81222;DHT22;70691;52.492;13.420;2023-08-24T10:29:42;28.10;36.50
81222;DHT22;70691;52.492;13.420;2023-08-24T10:32:08;28.10;36.70
81222;DHT22;70691;52.492;13.420;2023-08-24T10:34:34;28.20;36.10
81222;DHT22;70691;52.492;13.420;2023-08-24T10:37:10;28.40;35.70
81222;DHT22;70691;52.492;13.420;2023-08-24T10:39:37;28.40;36.00
81222;DHT22;70691;52.492;13.420;2023-08-24T10:42:10;28.40;36.30
81222;DHT22;70691;52.492;13.420;2023-08-24T10:44:37;28.50;36.30
81222;DHT22;70691;52.492;13.420;2023-08-24T10:47:19;28.50;36.20
81222;DHT22;70691;52.492;13.420;2023-08-24T10:49:58;28.60;36.00
81222;DHT22;70691;52.492;13.420;2023-08-24T10:52:31;28.70;36.10
81222;DHT22;70691;52.492;13.420;2023-08-24T10:55:00;28.70;35.50
81222;DHT22;70691;52.492;13.420;2023-08-24T10:57:35;28.70;35.80
81222;DHT22;70691;52.492;13.420;2023-08-24T11:00:11;28.80;35.70
81222;DHT22;70691;52.492;13.420;2023-08-24T11:02:48;28.80;35.20
81222;DHT22;70691;52.492;13.420;2023-08-24T11:07:54;29.00;35.40
81222;DHT22;70691;52.492;13.420;2023-08-24T11:10:22;29.00;35.90
81222;DHT22;70691;52.492;13.420;2023-08-24T11:15:30;29.10;35.50
81222;DHT22;70691;52.492;13.420;2023-08-24T11:20:53;29.20;35.50
81222;DHT22;70691;52.492;13.420;2023-08-24T11:23:20;29.20;35.00
81222;DHT22;70691;52.492;13.420;2023-08-24T11:25:47;29.30;35.00
81222;DHT22;70691;52.492;13.420;2023-08-24T11:28:19;29.40;34.60
81222;DHT22;70691;52.492;13.420;2023-08-24T11:30:46;29.50;34.60
81222;DHT22;70691;52.492;13.420;2023-08-24T11:33:12;29.50;35.20
81222;DHT22;70691;52.492;13.420;2023-08-24T11:35:44;29.50;35.10
81222;DHT22;70691;52.492;13.420;2023-08-24T11:38:10;29.50;35.20
81222;DHT22;70691;52.492;13.420;2023-08-24T11:40:36;29.50;34.90
81222;DHT22;70691;52.492;13.420;2023-08-24T11:43:03;29.50;35.10
81222;DHT22;70691;52.492;13.420;2023-08-24T11:45:33;29.60;34.80
81222;DHT22;70691;52.492;13.420;2023-08-24T11:47:59;29.60;35.00
81222;DHT22;70691;52.492;13.420;2023-08-24T11:50:30;29.60;34.80
81222;DHT22;70691;52.492;13.420;2023-08-24T11:52:56;29.70;34.70
81222;DHT22;70691;52.492;13.420;2023-08-24T11:55:25;29.70;34.30
81222;DHT22;70691;52.492;13.420;2023-08-24T11:57:51;29.80;34.40
81222;DHT22;70691;52.492;13.420;2023-08-24T12:00:21;29.70;34.40
81222;DHT22;70691;52.492;13.420;2023-08-24T12:02:48;29.80;33.40
81222;DHT22;70691;52.492;13.420;2023-08-24T12:05:21;29.80;33.50
81222;DHT22;70691;52.492;13.420;2023-08-24T12:07:47;29.80;33.30
81222;DHT22;70691;52.492;13.420;2023-08-24T12:10:13;29.80;34.00
81222;DHT22;70691;52.492;13.420;2023-08-24T12:12:39;29.80;34.10
81222;DHT22;70691;52.492;13.420;2023-08-24T12:15:05;29.90;33.90
81222;DHT22;70691;52.492;13.420;2023-08-24T12:17:42;29.90;33.80
81222;DHT22;70691;52.492;13.420;2023-08-24T12:20:22;29.90;35.10
81222;DHT22;70691;52.492;13.420;2023-08-24T12:22:54;29.90;34.50
81222;DHT22;70691;52.492;13.420;2023-08-24T12:25:23;29.90;34.80
81222;DHT22;70691;52.492;13.420;2023-08-24T12:28:07;30.00;33.80
81222;DHT22;70691;52.492;13.420;2023-08-24T12:30:52;30.10;33.80
81222;DHT22;70691;52.492;13.420;2023-08-24T12:33:27;30.20;33.80
81222;DHT22;70691;52.492;13.420;2023-08-24T12:35:54;30.30;33.40
81222;DHT22;70691;52.492;13.420;2023-08-24T12:38:22;30.20;34.00
81222;DHT22;70691;52.492;13.420;2023-08-24T12:40:48;30.10;34.10
81222;DHT22;70691;52.492;13.420;2023-08-24T12:43:13;30.10;34.40
81222;DHT22;70691;52.492;13.420;2023-08-24T12:45:40;30.10;34.30
81222;DHT22;70691;52.492;13.420;2023-08-24T12:48:06;30.10;34.00
81222;DHT22;70691;52.492;13.420;2023-08-24T12:50:36;30.30;34.30
81222;DHT22;70691;52.492;13.420;2023-08-24T12:53:01;30.30;34.40
81222;DHT22;70691;52.492;13.420;2023-08-24T12:55:29;30.40;34.20
81222;DHT22;70691;52.492;13.420;2023-08-24T12:57:54;30.40;33.20
81222;DHT22;70691;52.492;13.420;2023-08-24T13:00:20;30.40;32.90
81222;DHT22;70691;52.492;13.420;2023-08-24T13:02:50;30.40;33.30
81222;DHT22;70691;52.492;13.420;2023-08-24T13:05:16;30.40;33.50
81222;DHT22;70691;52.492;13.420;2023-08-24T13:07:42;30.50;33.90
81222;DHT22;70691;52.492;13.420;2023-08-24T13:10:08;30.50;33.50
81222;DHT22;70691;52.492;13.420;2023-08-24T13:12:34;30.50;33.10
81222;DHT22;70691;52.492;13.420;2023-08-24T13:15:01;30.60;33.00
81222;DHT22;70691;52.492;13.420;2023-08-24T13:17:29;30.60;33.20
81222;DHT22;70691;52.492;13.420;2023-08-24T13:19:55;30.60;33.20
81222;DHT22;70691;52.492;13.420;2023-08-24T13:22:20;30.70;33.60
81222;DHT22;70691;52.492;13.420;2023-08-24T13:24:46;30.80;33.30
81222;DHT22;70691;52.492;13.420;2023-08-24T13:27:12;30.80;33.60
81222;DHT22;70691;52.492;13.420;2023-08-24T13:29:38;30.80;33.50
81222;DHT22;70691;52.492;13.420;2023-08-24T13:32:04;30.90;33.20
81222;DHT22;70691;52.492;13.420;2023-08-24T13:34:33;31.00;32.90
81222;DHT22;70691;52.492;13.420;2023-08-24T13:36:59;31.00;32.50
81222;DHT22;70691;52.492;13.420;2023-08-24T13:39:30;31.10;32.60
81222;DHT22;70691;52.492;13.420;2023-08-24T13:41:58;31.20;31.80
81222;DHT22;70691;52.492;13.420;2023-08-24T13:44:24;31.20;31.70
81222;DHT22;70691;52.492;13.420;2023-08-24T13:46:50;31.20;32.30
81222;DHT22;70691;52.492;13.420;2023-08-24T13:49:18;31.20;32.70
81222;DHT22;70691;52.492;13.420;2023-08-24T13:51:44;31.20;32.70
81222;DHT22;70691;52.492;13.420;2023-08-24T13:54:17;31.20;32.40
81222;DHT22;70691;52.492;13.420;2023-08-24T13:56:44;31.20;32.60
81222;DHT22;70691;52.492;13.420;2023-08-24T13:59:10;31.10;32.70
81222;DHT22;70691;52.492;13.420;2023-08-24T14:01:36;31.00;32.90
81222;DHT22;70691;52.492;13.420;2023-08-24T14:04:03;31.10;32.70
81222;DHT22;70691;52.492;13.420;2023-08-24T14:06:32;31.00;32.90
81222;DHT22;70691;52.492;13.420;2023-08-24T14:09:00;31.10;32.40
81222;DHT22;70691;52.492;13.420;2023-08-24T14:11:28;31.10;32.20
81222;DHT22;70691;52.492;13.420;2023-08-24T14:13:54;31.10;32.20
81222;DHT22;70691;52.492;13.420;2023-08-24T14:16:19;31.10;32.80
81222;DHT22;70691;52.492;13.420;2023-08-24T14:18:46;31.10;33.00
81222;DHT22;70691;52.492;13.420;2023-08-24T14:21:11;31.00;32.90
81222;DHT22;70691;52.492;13.420;2023-08-24T14:23:37;31.00;32.60
81222;DHT22;70691;52.492;13.420;2023-08-24T14:26:03;31.00;32.60
81222;DHT22;70691;52.492;13.420;2023-08-24T14:28:51;31.00;32.70
81222;DHT22;70691;52.492;13.420;2023-08-24T14:31:23;31.20;32.40
81222;DHT22;70691;52.492;13.420;2023-08-24T14:33:50;31.20;32.50
81222;DHT22;70691;52.492;13.420;2023-08-24T14:36:17;31.20;32.30
81222;DHT22;70691;52.492;13.420;2023-08-24T14:38:42;31.20;32.30
81222;DHT22;70691;52.492;13.420;2023-08-24T14:41:12;31.20;32.10
81222;DHT22;70691;52.492;13.420;2023-08-24T14:43:38;31.30;31.50
81222;DHT22;70691;52.492;13.420;2023-08-24T14:46:04;31.20;31.30
81222;DHT22;70691;52.492;13.420;2023-08-24T14:48:30;31.20;31.80
81222;DHT22;70691;52.492;13.420;2023-08-24T14:50:56;31.10;32.20
81222;DHT22;70691;52.492;13.420;2023-08-24T14:53:25;31.10;32.30
81222;DHT22;70691;52.492;13.420;2023-08-24T14:55:54;30.90;32.80
81222;DHT22;70691;52.492;13.420;2023-08-24T14:58:24;30.90;32.50
81222;DHT22;70691;52.492;13.420;2023-08-24T15:00:50;30.90;32.10
81222;DHT22;70691;52.492;13.420;2023-08-24T15:03:17;31.00;32.10
81222;DHT22;70691;52.492;13.420;2023-08-24T15:05:56;30.90;32.20
81222;DHT22;70691;52.492;13.420;2023-08-24T15:08:22;30.90;32.20
81222;DHT22;70691;52.492;13.420;2023-08-24T15:10:50;30.90;32.60
81222;DHT22;70691;52.492;13.420;2023-08-24T15:13:16;31.00;32.70
81222;DHT22;70691;52.492;13.420;2023-08-24T15:15:42;31.10;32.60
81222;DHT22;70691;52.492;13.420;2023-08-24T15:18:09;31.10;32.70
81222;DHT22;70691;52.492;13.420;2023-08-24T15:20:35;31.10;32.60
81222;DHT22;70691;52.492;13.420;2023-08-24T15:23:01;31.10;32.50
81222;DHT22;70691;52.492;13.420;2023-08-24T15:25:27;31.20;32.10
81222;DHT22;70691;52.492;13.420;2023-08-24T15:27:53;31.20;32.10
81222;DHT22;70691;52.492;13.420;2023-08-24T15:30:19;31.10;32.40